Time;durP1;ratioP1;P1;durP2;ratioP2;P2;SDS_P1;SDS_P2;PMS_P1;PMS_P2;Temp;Humidity;BMP_temperature;BMP_pressure;BME280_temperature;BME280_humidity;BME280_pressure;Samples;Min_cycle;Max_cycle;Signal;HPM_P1;HPM_P2
2024/01/23 00:02:26;;;;;;;104.55;52.10;;;;;;;0.77;70.48;100626.16;4397589;32;20157;-75
2024/01/23 00:04:55;;;;;;;96.30;51.80;;;;;;;1.06;69.02;100623.00;4407749;32;20129;-75
2024/01/23 00:07:24;;;;;;;101.22;51.70;;;;;;;0.99;69.53;100611.84;4407293;32;20152;-74
2024/01/23 00:09:54;;;;;;;97.78;51.80;;;;;;;0.91;69.88;100618.91;4407352;32;20133;-75
2024/01/23 00:12:23;;;;;;;105.00;52.97;;;;;;;0.79;70.33;100621.75;4407370;32;20532;-75
2024/01/23 00:14:52;;;;;;;103.00;50.70;;;;;;;1.24;68.89;100614.84;4407307;32;20149;-75
2024/01/23 00:17:21;;;;;;;107.45;51.37;;;;;;;1.32;68.33;100619.91;4412715;27;20173;-74
2024/01/23 00:19:56;;;;;;;104.80;55.20;;;;;;;1.29;68.33;100625.19;4407321;32;20145;-75
2024/01/23 00:22:25;;;;;;;112.32;53.40;;;;;;;1.15;68.88;100618.50;4401255;32;20173;-75
2024/01/23 00:24:54;;;;;;;93.35;50.67;;;;;;;1.39;67.92;100632.81;4392236;32;20146;-75
2024/01/23 00:27:23;;;;;;;92.43;49.95;;;;;;;1.52;67.72;100612.53;4392176;32;20133;-75
2024/01/23 00:29:53;;;;;;;106.05;49.22;;;;;;;1.59;67.37;100600.22;4392116;32;20150;-75
2024/01/23 00:32:25;;;;;;;90.82;49.00;;;;;;;1.09;68.48;100595.09;4406960;32;20148;-75
2024/01/23 00:34:54;;;;;;;99.80;50.67;;;;;;;1.24;68.38;100604.38;4407441;32;20157;-75
2024/01/23 00:37:25;;;;;;;98.97;50.35;;;;;;;1.19;68.46;100603.63;4407123;32;20434;-75
2024/01/23 00:39:54;;;;;;;104.32;52.53;;;;;;;1.01;68.77;100601.38;4407410;32;20136;-75
2024/01/23 00:42:24;;;;;;;104.57;49.60;;;;;;;0.79;69.67;100616.53;4407217;32;20140;-75
2024/01/23 00:44:53;;;;;;;100.32;51.45;;;;;;;1.44;67.48;100633.56;4407380;32;20154;-75
2024/01/23 00:47:23;;;;;;;95.68;50.28;;;;;;;1.03;68.73;100639.59;4419771;27;20164;-75
2024/01/23 00:49:52;;;;;;;98.03;51.75;;;;;;;0.79;69.48;100627.81;4392932;32;20165;-75
2024/01/23 00:52:21;;;;;;;104.28;47.62;;;;;;;1.01;68.47;100645.72;4386668;32;20153;-75
2024/01/23 00:54:51;;;;;;;106.97;49.25;;;;;;;0.95;69.04;100644.06;4377211;32;20158;-75
2024/01/23 00:57:21;;;;;;;107.25;51.35;;;;;;;1.08;68.38;100644.72;4376924;32;20146;-75
2024/01/23 00:59:50;;;;;;;102.87;51.10;;;;;;;0.63;69.31;100642.03;4377042;32;20138;-75
2024/01/23 01:02:19;;;;;;;99.32;52.30;;;;;;;0.79;69.47;100635.66;4377023;32;20149;-75
2024/01/23 01:04:48;;;;;;;112.53;55.67;;;;;;;0.61;70.28;100636.84;4376662;32;20158;-75
2024/01/23 01:07:18;;;;;;;104.50;52.67;;;;;;;1.01;69.06;100627.47;4376871;32;20177;-75
2024/01/23 01:09:52;;;;;;;107.90;52.58;;;;;;;0.94;69.10;100617.13;4376975;32;20142;-75
2024/01/23 01:12:21;;;;;;;115.55;52.33;;;;;;;0.87;69.46;100620.75;4377040;32;20154;-75
2024/01/23 01:14:51;;;;;;;112.07;50.67;;;;;;;1.35;67.79;100623.31;4377223;32;20161;-75
2024/01/23 01:17:20;;;;;;;100.25;49.63;;;;;;;0.82;69.10;100621.72;4393737;27;20145;-74
2024/01/23 01:19:57;;;;;;;115.95;50.50;;;;;;;0.89;68.98;100625.94;4406995;32;20141;-75
2024/01/23 01:22:26;;;;;;;105.55;50.75;;;;;;;1.19;68.15;100620.16;4406685;32;20477;-75
2024/01/23 01:24:58;;;;;;;104.93;53.47;;;;;;;0.65;69.86;100609.81;4407080;32;20172;-75
2024/01/23 01:27:30;;;;;;;101.95;47.97;;;;;;;1.27;68.15;100606.94;4406963;32;20141;-75
2024/01/23 01:30:04;;;;;;;97.40;48.65;;;;;;;1.14;68.02;100603.69;4406873;32;20169;-75
2024/01/23 01:32:33;;;;;;;103.35;52.33;;;;;;;1.15;68.11;100610.66;4406768;32;20137;-75
2024/01/23 01:35:03;;;;;;;91.72;44.42;;;;;;;1.36;67.54;100611.13;4407106;32;20141;-75
2024/01/23 01:37:38;;;;;;;89.82;43.92;;;;;;;1.84;66.13;100613.59;4406758;32;20153;-75
2024/01/23 01:40:13;;;;;;;94.87;46.85;;;;;;;1.63;66.71;100601.84;4406949;32;20169;-75
2024/01/23 01:42:43;;;;;;;88.95;43.83;;;;;;;1.67;66.66;100616.56;4406833;32;20156;-75
2024/01/23 01:45:14;;;;;;;93.28;42.78;;;;;;;1.86;66.28;100610.06;4406835;32;20144;-75
2024/01/23 01:47:43;;;;;;;83.65;44.53;;;;;;;2.17;64.98;100612.81;4410747;27;20150;-75
2024/01/23 01:50:14;;;;;;;87.57;44.40;;;;;;;2.33;63.63;100607.22;4391940;32;20169;-75
2024/01/23 01:52:43;;;;;;;89.37;44.65;;;;;;;1.58;66.11;100622.81;4384587;32;20446;-75
2024/01/23 01:55:15;;;;;;;94.10;50.60;;;;;;;1.82;65.42;100610.13;4376448;32;20181;-75
2024/01/23 01:57:44;;;;;;;85.45;43.65;;;;;;;1.66;65.85;100607.00;4376456;32;20165;-75
2024/01/23 02:00:15;;;;;;;97.78;47.90;;;;;;;1.61;65.92;100599.25;4376791;32;20137;-75
2024/01/23 02:02:47;;;;;;;81.00;44.15;;;;;;;1.16;67.49;100599.31;4390843;32;20165;-75
2024/01/23 02:05:17;;;;;;;102.43;46.15;;;;;;;1.55;66.66;100593.31;4392039;32;20145;-75
2024/01/23 02:07:47;;;;;;;104.00;49.45;;;;;;;1.61;66.19;100595.78;4391657;32;20137;-75
2024/01/23 02:10:18;;;;;;;105.37;46.92;;;;;;;1.36;67.37;100593.69;4391550;32;20142;-75
2024/01/23 02:12:48;;;;;;;88.72;43.08;;;;;;;0.96;68.35;100575.34;4391625;32;20152;-75
2024/01/23 02:15:23;;;;;;;102.07;45.65;;;;;;;1.13;68.30;100572.41;4391326;32;20136;-75
2024/01/23 02:17:56;;;;;;;93.50;44.63;;;;;;;1.22;68.09;100567.00;4411043;27;20164;-75
2024/01/23 02:20:25;;;;;;;;;;;;;;;1.47;67.14;100557.78;4407338;32;20145;-75
2024/01/23 02:22:55;;;;;;;103.38;48.83;;;;;;;1.72;66.41;100575.53;4406417;32;20029;-75
2024/01/23 02:25:29;;;;;;;105.45;49.38;;;;;;;1.76;66.35;100574.56;4406493;32;20149;-75
2024/01/23 02:28:08;;;;;;;93.12;50.05;;;;;;;1.98;65.59;100588.00;4406586;32;20157;-75
2024/01/23 02:30:39;;;;;;;83.78;42.65;;;;;;;1.80;65.86;100586.66;4405586;32;20242;-75
2024/01/23 02:33:09;;;;;;;97.45;46.83;;;;;;;1.73;66.21;100569.41;4409306;32;20149;-75
2024/01/23 02:35:47;;;;;;;97.68;48.85;;;;;;;1.70;66.37;100572.06;4421945;32;20493;-75
2024/01/23 02:38:17;;;;;;;89.13;44.95;;;;;;;1.57;66.69;100576.72;4422163;32;20136;-75
2024/01/23 02:40:48;;;;;;;107.00;49.28;;;;;;;1.20;68.25;100585.31;4421961;32;20145;-75
2024/01/23 02:43:19;;;;;;;95.60;45.12;;;;;;;1.46;67.08;100582.16;4421593;32;20180;-75
2024/01/23 02:45:49;;;;;;;105.68;48.80;;;;;;;1.27;67.77;100573.00;4421711;32;20414;-75
2024/01/23 02:48:18;;;;;;;90.38;45.95;;;;;;;1.53;67.54;100587.25;4426619;27;20156;-74
2024/01/23 02:50:48;;;;;;;88.15;44.03;;;;;;;1.81;66.20;100591.00;4421537;32;20137;-75
2024/01/23 02:53:17;;;;;;;85.93;45.50;;;;;;;1.69;67.08;100588.66;4421629;32;20148;-75
2024/01/23 02:55:53;;;;;;;92.30;46.53;;;;;;;2.17;65.82;100591.88;4421407;32;20156;-75
2024/01/23 02:58:24;;;;;;;101.12;48.42;;;;;;;2.07;65.74;100594.78;4421179;32;20137;-75
2024/01/23 03:00:53;;;;;;;90.70;47.22;;;;;;;2.28;65.46;100603.88;4417215;32;20180;-75
2024/01/23 03:03:23;;;;;;;104.65;50.30;;;;;;;2.14;65.84;100597.22;4405531;32;20148;-75
2024/01/23 03:05:51;;;;;;;93.93;47.08;;;;;;;2.14;66.08;100605.06;4406229;32;20160;-75
2024/01/23 03:08:22;;;;;;;90.00;45.12;;;;;;;2.19;65.96;100600.56;4406925;32;20141;-75
2024/01/23 03:10:54;;;;;;;98.15;44.47;;;;;;;2.25;65.77;100598.69;4406138;32;20474;-75
2024/01/23 03:13:23;;;;;;;91.53;47.60;;;;;;;2.06;66.42;100599.16;4406062;32;20159;-75
2024/01/23 03:15:53;;;;;;;100.82;50.95;;;;;;;2.23;66.00;100603.97;4406223;32;20422;-75
2024/01/23 03:18:25;;;;;;;94.45;44.28;;;;;;;2.26;65.92;100601.28;4422351;27;20142;-74
2024/01/23 03:20:55;;;;;;;100.07;45.78;;;;;;;2.24;65.98;100603.06;4421381;32;20180;-75
2024/01/23 03:23:25;;;;;;;95.05;47.78;;;;;;;2.38;65.59;100592.28;4421292;32;20172;-75
2024/01/23 03:25:55;;;;;;;93.40;44.90;;;;;;;2.43;65.21;100596.50;4421032;32;20160;-75
2024/01/23 03:28:25;;;;;;;101.72;47.45;;;;;;;2.50;65.23;100589.37;4420862;32;20187;-75
2024/01/23 03:30:54;;;;;;;91.87;45.40;;;;;;;2.55;65.17;100586.63;4418160;32;20161;-75
2024/01/23 03:33:24;;;;;;;93.68;46.15;;;;;;;2.49;65.24;100589.37;4412902;32;20156;-75
2024/01/23 03:35:54;;;;;;;89.03;44.88;;;;;;;2.77;64.24;100608.72;4421135;32;20225;-75
2024/01/23 03:38:24;;;;;;;96.57;46.00;;;;;;;2.53;65.02;100589.28;4421370;32;20145;-75
2024/01/23 03:40:55;;;;;;;87.68;43.72;;;;;;;2.34;65.63;100588.91;4421092;32;20145;-75
2024/01/23 03:43:27;;;;;;;95.97;47.60;;;;;;;2.40;65.51;100585.25;4421033;32;20176;-75
2024/01/23 03:45:57;;;;;;;97.93;47.80;;;;;;;2.55;65.03;100577.03;4421158;32;20196;-75
2024/01/23 03:48:26;;;;;;;84.22;46.58;;;;;;;2.20;65.90;100570.06;4414423;27;20177;-75
2024/01/23 03:50:55;;;;;;;93.45;43.97;;;;;;;2.34;65.57;100582.81;4405774;32;20142;-75
2024/01/23 03:53:25;;;;;;;85.80;44.30;;;;;;;2.62;64.71;100589.06;4405443;32;20192;-75
2024/01/23 03:55:57;;;;;;;91.35;44.42;;;;;;;2.70;63.92;100587.09;4405550;32;20169;-75
2024/01/23 03:58:27;;;;;;;87.82;46.50;;;;;;;2.53;64.71;100576.19;4405593;32;20161;-75
2024/01/23 04:01:00;;;;;;;90.30;44.72;;;;;;;2.43;65.05;100585.19;4400345;32;20177;-75
2024/01/23 04:03:30;;;;;;;89.13;46.35;;;;;;;2.74;64.33;100595.75;4382494;32;20157;-75
2024/01/23 04:05:59;;;;;;;93.68;47.20;;;;;;;2.64;64.49;100602.94;4390390;32;20145;-75
2024/01/23 04:08:29;;;;;;;91.78;45.08;;;;;;;2.49;64.85;100611.16;4390755;32;20153;-75
2024/01/23 04:10:59;;;;;;;91.45;44.85;;;;;;;2.52;64.86;100615.47;4390396;32;20153;-75
2024/01/23 04:13:28;;;;;;;91.60;46.15;;;;;;;2.16;65.97;100602.41;4390363;32;20149;-75
2024/01/23 04:15:58;;;;;;;94.07;45.28;;;;;;;2.61;64.70;100597.81;4390172;32;20145;-75
2024/01/23 04:18:27;;;;;;;91.18;44.13;;;;;;;2.63;64.48;100596.00;4406955;27;20161;-75
2024/01/23 04:20:59;;;;;;;91.35;46.30;;;;;;;2.41;65.06;100608.75;4405497;32;20152;-75
2024/01/23 04:23:29;;;;;;;88.55;44.63;;;;;;;2.53;64.89;100618.03;4405221;32;20172;-75
2024/01/23 04:26:00;;;;;;;89.20;44.97;;;;;;;2.21;65.56;100614.44;4405353;32;20161;-75
2024/01/23 04:28:30;;;;;;;87.55;42.65;;;;;;;2.46;65.10;100622.59;4405242;32;20164;-75
2024/01/23 04:30:59;;;;;;;86.40;44.15;;;;;;;2.56;64.80;100630.19;4404646;32;20196;-75
2024/01/23 04:33:29;;;;;;;85.25;45.17;;;;;;;2.56;64.51;100627.59;4404756;32;20161;-75
2024/01/23 04:35:59;;;;;;;87.50;43.87;;;;;;;2.40;64.91;100625.34;4405233;32;20138;-75
2024/01/23 04:38:28;;;;;;;98.55;47.65;;;;;;;2.28;65.46;100632.63;4405790;32;20291;-75
2024/01/23 04:41:01;;;;;;;94.05;45.90;;;;;;;2.13;65.92;100623.37;4407058;32;20441;-75
2024/01/23 04:43:31;;;;;;;89.93;47.47;;;;;;;2.28;65.38;100616.94;4407220;32;20185;-75
2024/01/23 04:46:00;;;;;;;92.85;45.88;;;;;;;2.09;66.09;100616.50;4407225;32;20164;-75
2024/01/23 04:48:35;;;;;;;84.55;50.78;;;;;;;1.96;66.18;100631.59;4412727;27;20187;-75
2024/01/23 04:51:05;;;;;;;89.28;44.17;;;;;;;2.34;65.41;100627.25;4407136;32;20434;-75
2024/01/23 04:53:35;;;;;;;85.45;45.30;;;;;;;2.49;64.83;100628.62;4396702;32;20142;-75
2024/01/23 04:56:05;;;;;;;77.22;39.45;;;;;;;2.43;64.97;100627.03;4377522;32;20166;-75
2024/01/23 04:58:35;;;;;;;88.03;47.50;;;;;;;2.14;65.61;100638.19;4376922;32;20169;-75
2024/01/23 05:01:04;;;;;;;84.32;46.50;;;;;;;2.30;65.09;100647.41;4378975;32;20165;-75
2024/01/23 05:03:33;;;;;;;81.43;46.50;;;;;;;2.27;65.27;100659.69;4391496;32;20153;-75
2024/01/23 05:06:04;;;;;;;91.70;51.00;;;;;;;2.35;65.01;100648.13;4392108;32;20520;-75
2024/01/23 05:08:34;;;;;;;98.97;52.10;;;;;;;2.26;65.18;100656.22;4392483;32;20141;-75
2024/01/23 05:11:04;;;;;;;84.53;48.92;;;;;;;2.21;65.43;100643.22;4391904;32;20141;-75
2024/01/23 05:13:33;;;;;;;79.50;46.37;;;;;;;2.34;64.86;100646.44;4391935;32;20165;-75
2024/01/23 05:16:03;;;;;;;88.43;43.85;;;;;;;2.33;65.17;100651.69;4392026;32;20137;-75
2024/01/23 05:18:33;;;;;;;79.45;43.10;;;;;;;2.01;65.74;100650.66;4396936;27;20149;-75
2024/01/23 05:21:02;;;;;;;71.87;41.60;;;;;;;2.11;66.08;100641.72;4392259;32;20146;-75
2024/01/23 05:23:32;;;;;;;81.47;47.20;;;;;;;2.30;65.45;100631.72;4391662;32;20424;-75
2024/01/23 05:26:01;;;;;;;87.37;45.80;;;;;;;2.24;65.54;100644.91;4406870;32;20165;-75
2024/01/23 05:28:33;;;;;;;81.18;44.75;;;;;;;2.06;66.01;100653.16;4407067;32;20137;-75
2024/01/23 05:31:03;;;;;;;87.07;47.40;;;;;;;2.15;65.55;100647.75;4406525;32;20157;-75
2024/01/23 05:33:36;;;;;;;79.07;44.67;;;;;;;2.24;65.34;100644.06;4406371;32;20144;-75
2024/01/23 05:36:06;;;;;;;79.70;43.67;;;;;;;2.37;64.83;100645.47;4407020;32;20498;-75
2024/01/23 05:38:36;;;;;;;82.15;46.10;;;;;;;2.07;65.46;100660.13;4407008;32;20177;-75
2024/01/23 05:41:06;;;;;;;80.80;43.42;;;;;;;2.13;65.17;100657.37;4407272;32;20176;-75
2024/01/23 05:43:37;;;;;;;88.40;43.95;;;;;;;2.17;65.19;100662.47;4406897;32;20800;-75
2024/01/23 05:46:06;;;;;;;85.80;47.60;;;;;;;2.32;64.74;100665.66;4406964;32;20165;-75
2024/01/23 05:48:42;;;;;;;89.97;48.22;;;;;;;2.31;64.65;100667.41;4407266;27;20441;-75
2024/01/23 05:51:11;;;;;;;82.70;44.97;;;;;;;1.92;65.75;100661.31;4391492;32;20149;-75
2024/01/23 05:53:41;;;;;;;79.60;45.47;;;;;;;2.17;65.09;100670.31;4381332;32;20486;-75
2024/01/23 05:56:10;;;;;;;80.10;46.03;;;;;;;2.38;64.57;100681.22;4348378;32;20143;-75
2024/01/23 05:58:42;;;;;;;88.18;45.28;;;;;;;2.38;64.65;100678.59;4361775;33;20169;-75
2024/01/23 06:01:12;;;;;;;85.82;46.85;;;;;;;2.47;64.29;100691.47;4363288;32;20188;-75
2024/01/23 06:03:42;;;;;;;94.72;46.37;;;;;;;1.97;65.89;100706.50;4375828;32;20142;-76
2024/01/23 06:06:14;;;;;;;84.57;47.08;;;;;;;2.19;64.94;100712.16;4376315;32;20154;-76
2024/01/23 06:08:44;;;;;;;;;;;;;;;2.25;64.98;100714.59;4377033;32;20423;-76
2024/01/23 06:11:14;;;;;;;78.18;43.33;;;;;;;2.18;65.24;100721.75;4376986;32;20023;-76
2024/01/23 06:13:48;;;;;;;81.95;43.92;;;;;;;2.39;64.85;100732.63;4376648;32;20442;-76
2024/01/23 06:16:17;;;;;;;88.57;45.42;;;;;;;2.20;65.28;100734.78;4376435;32;20143;-76
2024/01/23 06:18:47;;;;;;;93.32;47.13;;;;;;;2.32;64.90;100728.41;4414335;27;20490;-75
2024/01/23 06:21:16;;;;;;;83.72;48.60;;;;;;;2.18;65.32;100732.19;4417399;32;20153;-75
2024/01/23 06:23:45;;;;;;;87.15;48.50;;;;;;;2.18;65.55;100740.06;4406028;32;20160;-76
2024/01/23 06:26:14;;;;;;;82.00;44.97;;;;;;;2.30;65.33;100736.31;4406895;32;20180;-76
2024/01/23 06:28:47;;;;;;;96.03;51.35;;;;;;;2.27;65.51;100731.13;4406736;32;20161;-76
2024/01/23 06:31:25;;;;;;;86.63;47.10;;;;;;;2.36;65.34;100724.84;4404063;32;20177;-76
2024/01/23 06:33:55;;;;;;;88.82;47.03;;;;;;;2.53;64.66;100737.53;4391225;32;20141;-76
2024/01/23 06:36:24;;;;;;;95.40;48.75;;;;;;;2.47;64.91;100741.16;4391258;32;20133;-76
2024/01/23 06:38:53;;;;;;;102.85;53.67;;;;;;;2.62;64.69;100742.56;4391615;32;21672;-76
2024/01/23 06:41:23;;;;;;;101.10;52.90;;;;;;;2.58;64.57;100748.78;4391865;32;20176;-76
2024/01/23 06:43:56;;;;;;;89.47;45.58;;;;;;;2.54;64.69;100755.81;4391596;32;20149;-76
2024/01/23 06:46:25;;;;;;;87.85;46.10;;;;;;;2.58;64.49;100757.47;4391491;32;20201;-76
2024/01/23 06:48:54;;;;;;;89.40;46.28;;;;;;;2.58;64.23;100754.84;4415819;27;20427;-75
2024/01/23 06:51:23;;;;;;;82.20;45.22;;;;;;;2.76;63.85;100760.56;4406560;32;20153;-76
2024/01/23 06:53:52;;;;;;;85.95;46.28;;;;;;;2.79;63.81;100770.94;4404855;32;20181;-76
2024/01/23 06:56:22;;;;;;;82.40;46.40;;;;;;;2.65;64.38;100753.81;4391608;32;20161;-76
2024/01/23 06:58:51;;;;;;;85.47;47.95;;;;;;;2.63;64.50;100766.06;4391872;32;20184;-76
2024/01/23 07:01:22;;;;;;;95.93;52.53;;;;;;;2.86;63.93;100772.53;4390675;32;20157;-76
2024/01/23 07:03:51;;;;;;;83.85;46.67;;;;;;;2.80;64.20;100783.13;4390077;32;20176;-76
2024/01/23 07:06:20;;;;;;;93.25;48.80;;;;;;;3.06;63.68;100790.38;4391177;32;20144;-76
2024/01/23 07:08:51;;;;;;;85.30;47.22;;;;;;;3.10;63.19;100802.50;4391215;32;20145;-76
2024/01/23 07:11:21;;;;;;;89.68;45.55;;;;;;;3.24;62.79;100799.53;4391369;32;20130;-76
2024/01/23 07:13:49;;;;;;;111.05;54.85;;;;;;;3.22;62.85;100814.44;4391048;32;20431;-76
2024/01/23 07:16:21;;;;;;;100.40;54.47;;;;;;;3.03;63.59;100809.63;4391068;32;20141;-76
2024/01/23 07:18:58;;;;;;;101.05;59.33;;;;;;;2.93;64.06;100808.12;4414995;27;20146;-76
2024/01/23 07:21:27;;;;;;;108.70;57.53;;;;;;;3.06;63.89;100817.44;4406119;32;20149;-76
2024/01/23 07:23:56;;;;;;;92.65;48.87;;;;;;;3.05;64.16;100810.47;4405881;32;20161;-76
2024/01/23 07:26:26;;;;;;;97.60;49.05;;;;;;;3.10;64.15;100807.75;4406404;32;20208;-76
2024/01/23 07:28:55;;;;;;;100.05;51.20;;;;;;;3.28;63.56;100812.50;4405875;32;20172;-76
2024/01/23 07:31:31;;;;;;;91.43;48.38;;;;;;;3.40;63.11;100813.97;4405137;32;20140;-76
2024/01/23 07:34:02;;;;;;;97.90;50.92;;;;;;;3.28;63.23;100812.50;4414266;32;20165;-76
2024/01/23 07:36:32;;;;;;;86.50;50.05;;;;;;;2.94;63.83;100812.47;4407242;32;20152;-76
2024/01/23 07:39:01;;;;;;;98.10;47.85;;;;;;;3.02;64.07;100804.44;4420982;32;20143;-76
2024/01/23 07:41:31;;;;;;;97.32;50.92;;;;;;;3.01;64.29;100798.34;4421155;32;20309;-76
2024/01/23 07:44:04;;;;;;;98.80;51.85;;;;;;;3.08;64.13;100794.66;4420835;32;20149;-76
2024/01/23 07:46:35;;;;;;;95.95;52.47;;;;;;;3.17;63.88;100784.00;4420827;32;20170;-76
2024/01/23 07:49:08;;;;;;;87.93;51.53;;;;;;;3.30;63.42;100804.62;4432748;27;20155;-75
2024/01/23 07:51:48;;;;;;;94.62;48.33;;;;;;;3.13;63.83;100798.06;4420876;32;20200;-76
2024/01/23 07:54:18;;;;;;;90.20;49.50;;;;;;;3.19;63.49;100794.41;4420485;32;20160;-76
2024/01/23 07:56:47;;;;;;;95.18;52.20;;;;;;;3.19;63.68;100794.41;4421336;32;20137;-76
2024/01/23 07:59:16;;;;;;;88.40;47.45;;;;;;;3.27;63.48;100789.84;4421276;32;20140;-76
2024/01/23 08:01:47;;;;;;;88.65;50.00;;;;;;;3.36;62.92;100799.22;4417126;32;20169;-76
2024/01/23 08:04:17;;;;;;;100.68;48.75;;;;;;;3.09;63.81;100804.28;4404832;32;20169;-76
2024/01/23 08:06:46;;;;;;;101.75;50.47;;;;;;;3.18;63.93;100798.78;4405384;32;20141;-76
2024/01/23 08:09:15;;;;;;;73.78;43.28;;;;;;;3.51;63.25;100832.91;4405493;32;20194;-76
2024/01/23 08:11:45;;;;;;;90.60;48.72;;;;;;;3.42;63.05;100809.56;4405267;32;20172;-76
2024/01/23 08:14:18;;;;;;;95.15;50.72;;;;;;;3.40;63.41;100806.97;4406133;32;20149;-76
2024/01/23 08:16:48;;;;;;;93.60;50.97;;;;;;;3.26;63.96;100823.94;4407618;32;20152;-76
2024/01/23 08:19:23;;;;;;;83.10;47.38;;;;;;;3.61;63.25;100828.31;4420242;27;20156;-75
2024/01/23 08:21:53;;;;;;;91.65;47.80;;;;;;;3.70;62.93;100842.03;4408009;32;20494;-76
2024/01/23 08:24:22;;;;;;;84.55;48.72;;;;;;;3.37;62.82;100846.34;4407738;32;20165;-76
2024/01/23 08:26:54;;;;;;;86.15;47.92;;;;;;;3.39;62.91;100848.94;4407697;32;20168;-76
2024/01/23 08:29:23;;;;;;;79.62;46.83;;;;;;;3.22;63.79;100846.72;4408160;32;20165;-76
2024/01/23 08:31:54;;;;;;;81.40;46.78;;;;;;;3.63;62.91;100829.97;4406979;32;20445;-76
2024/01/23 08:34:26;;;;;;;79.90;45.53;;;;;;;3.75;62.76;100833.16;4406805;32;20169;-76
2024/01/23 08:36:56;;;;;;;;;;;;;;;4.10;61.79;100840.94;4407500;32;20846;-76
2024/01/23 08:39:25;;;;;;;83.30;45.20;;;;;;;4.08;61.61;100842.78;4407377;32;20032;-76
2024/01/23 08:42:00;;;;;;;77.75;44.38;;;;;;;4.15;60.78;100846.91;4407057;32;20145;-76
2024/01/23 08:44:33;;;;;;;84.37;45.65;;;;;;;4.10;60.63;100842.72;4407613;32;20436;-76
2024/01/23 08:47:07;;;;;;;75.62;45.90;;;;;;;3.91;60.87;100855.47;4393899;27;20149;31
2024/01/23 08:49:37;;;;;;;80.85;48.35;;;;;;;3.75;61.22;100854.13;4375863;32;20458;-76
2024/01/23 08:52:06;;;;;;;86.70;50.90;;;;;;;3.67;61.87;100857.81;4377279;32;20153;-76
2024/01/23 08:54:36;;;;;;;77.97;46.17;;;;;;;3.53;62.19;100869.56;4383164;32;20145;-76
2024/01/23 08:57:08;;;;;;;89.18;48.10;;;;;;;3.66;61.96;100858.72;4392043;32;20141;-76
2024/01/23 08:59:38;;;;;;;87.30;49.35;;;;;;;3.67;62.61;100870.91;4392048;32;20165;-76
2024/01/23 09:02:09;;;;;;;86.75;47.15;;;;;;;3.88;61.94;100879.12;4387200;32;20487;-76
2024/01/23 09:04:37;;;;;;;81.85;48.10;;;;;;;4.34;60.30;100880.53;4363629;32;20165;-76
2024/01/23 09:07:07;;;;;;;75.55;45.12;;;;;;;3.89;60.97;100873.00;4362123;32;20164;-76
2024/01/23 09:09:36;;;;;;;100.00;56.42;;;;;;;4.09;60.60;100862.00;4362047;32;20130;-76
2024/01/23 09:12:09;;;;;;;83.00;49.00;;;;;;;4.26;60.40;100862.38;4361816;32;20215;-76
2024/01/23 09:14:39;;;;;;;84.50;47.85;;;;;;;4.48;59.98;100865.25;4362169;32;20166;-76
2024/01/23 09:17:15;;;;;;;76.20;47.62;;;;;;;4.78;59.52;100866.09;4368720;27;20142;-75
2024/01/23 09:19:44;;;;;;;69.00;43.10;;;;;;;4.82;58.95;100866.88;4361598;33;20207;-75
2024/01/23 09:22:15;;;;;;;67.60;44.85;;;;;;;5.22;58.22;100860.37;4361607;32;20150;-75
2024/01/23 09:24:47;;;;;;;71.22;43.75;;;;;;;5.21;57.46;100871.81;4361143;32;20189;-75
2024/01/23 09:27:17;;;;;;;67.15;43.25;;;;;;;5.20;57.74;100885.88;4360792;32;20249;-75
2024/01/23 09:29:46;;;;;;;66.85;43.05;;;;;;;5.57;57.65;100881.13;4361710;32;20153;-75
2024/01/23 09:32:17;;;;;;;67.32;43.38;;;;;;;6.00;57.04;100884.13;4361513;33;20182;-75
2024/01/23 09:34:49;;;;;;;66.95;40.05;;;;;;;6.19;56.45;100879.09;4361039;32;20508;-75
2024/01/23 09:37:19;;;;;;;58.45;38.67;;;;;;;6.82;54.43;100881.13;4361507;32;20153;-75
2024/01/23 09:39:48;;;;;;;65.57;42.25;;;;;;;7.15;53.70;100862.28;4361494;32;20185;-75
2024/01/23 09:42:18;;;;;;;62.28;40.65;;;;;;;7.14;53.09;100869.31;4361542;32;20474;-75
2024/01/23 09:44:53;;;;;;;68.18;42.00;;;;;;;7.43;52.47;100862.03;4361504;32;20142;-75
2024/01/23 09:47:27;;;;;;;69.47;39.45;;;;;;;7.99;50.87;100866.69;4369969;27;20138;-74
2024/01/23 09:49:57;;;;;;;66.72;43.75;;;;;;;8.57;49.33;100856.22;4391363;32;20589;-75
2024/01/23 09:52:27;;;;;;;59.67;40.47;;;;;;;9.07;48.39;100873.31;4391241;32;20165;-75
2024/01/23 09:55:02;;;;;;;65.97;42.15;;;;;;;9.55;46.85;100858.62;4391499;32;20157;-75
2024/01/23 09:57:32;;;;;;;63.22;41.58;;;;;;;10.14;45.41;100849.44;4391449;32;20282;-75
2024/01/23 10:00:06;;;;;;;58.78;37.15;;;;;;;10.49;44.42;100837.00;4391372;32;20153;-73
2024/01/23 10:02:42;;;;;;;65.53;37.63;;;;;;;10.92;43.49;100847.03;4376790;32;20546;-74
2024/01/23 10:05:16;;;;;;;64.85;41.15;;;;;;;11.07;43.56;100844.38;4391199;32;20447;-73
2024/01/23 10:07:45;;;;;;;54.85;37.67;;;;;;;11.30;42.87;100844.88;4391675;32;20146;-73
2024/01/23 10:10:17;;;;;;;54.40;37.00;;;;;;;11.45;42.41;100854.59;4391709;32;20156;-73
2024/01/23 10:12:49;;;;;;;57.17;38.40;;;;;;;11.84;41.59;100845.28;4391586;32;20176;-73
2024/01/23 10:15:21;;;;;;;55.35;36.47;;;;;;;11.91;41.58;100837.78;4391620;32;20148;-73
2024/01/23 10:17:53;;;;;;;57.93;37.77;;;;;;;12.11;41.34;100834.78;4403280;27;20161;-73
2024/01/23 10:20:30;;;;;;;57.22;38.42;;;;;;;12.47;40.53;100834.34;4392149;32;20484;-73
2024/01/23 10:22:59;;;;;;;52.08;36.13;;;;;;;12.62;40.36;100835.19;4390641;32;20962;-73
2024/01/23 10:25:32;;;;;;;50.63;35.22;;;;;;;12.58;39.77;100827.50;4379329;32;20173;-73
2024/01/23 10:28:01;;;;;;;51.88;36.20;;;;;;;12.28;40.25;100837.28;4376429;32;20154;-73
2024/01/23 10:30:30;;;;;;;52.35;35.20;;;;;;;12.51;40.55;100841.19;4362882;32;20146;-73
2024/01/23 10:33:02;;;;;;;53.95;37.10;;;;;;;12.51;40.69;100841.19;4375960;32;20510;-73
2024/01/23 10:35:33;;;;;;;47.75;35.33;;;;;;;12.63;40.28;100838.69;4376125;32;20423;-73
2024/01/23 10:38:03;;;;;;;45.42;32.25;;;;;;;12.93;39.91;100835.91;4386593;32;20149;-73
2024/01/23 10:40:32;;;;;;;54.25;34.22;;;;;;;12.56;40.27;100830.25;4376513;32;20185;-73
2024/01/23 10:43:02;;;;;;;47.62;33.83;;;;;;;12.76;40.16;100818.38;4376332;32;20157;-73
2024/01/23 10:45:32;;;;;;;45.22;32.40;;;;;;;13.01;39.93;100825.62;4376579;32;20490;-73
2024/01/23 10:48:06;;;;;;;48.17;32.90;;;;;;;12.96;40.00;100817.09;4389585;27;20153;-73
2024/01/23 10:50:38;;;;;;;44.45;33.80;;;;;;;13.14;39.79;100807.88;4406360;32;20145;-73
2024/01/23 10:53:07;;;;;;;45.83;32.20;;;;;;;13.38;39.21;100809.91;4406374;32;20165;-73
2024/01/23 10:55:40;;;;;;;45.65;30.40;;;;;;;13.33;39.64;100810.22;4394310;32;20169;-72
2024/01/23 10:58:22;;;;;;;45.58;32.28;;;;;;;13.31;39.60;100806.84;4381594;32;20160;-72
2024/01/23 11:00:58;;;;;;;42.10;31.05;;;;;;;13.41;39.50;100817.72;4376515;32;20146;-73
2024/01/23 11:03:35;;;;;;;41.78;29.95;;;;;;;13.63;39.09;100811.81;4381045;32;20176;-73
2024/01/23 11:06:14;;;;;;;41.42;30.37;;;;;;;13.40;39.71;100806.22;4361367;32;20443;-73
2024/01/23 11:08:52;;;;;;;38.10;26.48;;;;;;;13.32;40.01;100810.34;4361608;32;20166;-73
2024/01/23 11:11:30;;;;;;;38.42;27.48;;;;;;;13.76;47.19;100802.87;4361625;33;20166;-73
2024/01/23 11:14:06;;;;;;;39.10;29.40;;;;;;;14.75;45.81;100799.53;4376003;32;20133;-73
2024/01/23 11:17:02;;;;;;;46.37;30.10;;;;;;;15.19;42.66;100798.09;4375980;32;20432;-73
2024/01/23 11:19:41;;;;;;;45.97;28.50;;;;;;;15.70;39.26;100792.50;4381733;27;20410;-73
2024/01/23 11:22:11;;;;;;;38.78;29.12;;;;;;;15.76;38.87;100786.69;4390769;32;20172;-73
2024/01/23 11:24:42;;;;;;;44.95;31.25;;;;;;;15.69;37.30;100780.94;4390407;32;20157;-73
2024/01/23 11:27:19;;;;;;;;;;;;;;;15.56;35.88;100779.28;4391313;32;20146;-73
2024/01/23 11:29:49;;;;;;;41.72;30.48;;;;;;;15.65;35.64;100778.63;4391154;32;20032;-73
2024/01/23 11:32:25;;;;;;;38.38;28.12;;;;;;;15.14;36.91;100776.22;4390409;32;20165;-73
2024/01/23 11:35:02;;;;;;;36.92;28.15;;;;;;;14.90;37.43;100774.41;4390192;32;20193;-73